Castle Hills, Texas
Current Conditions -  °F | °C
As of 11:51 PM on Saturday 22 Nov 2014 (Local Time) from KSAT Reporting Station
Broken Clouds Broken Clouds  
Wind Chill: 62°   Ceiling: 25000
Heat Index: 62°   Visibility: 10mi
Dew Point: 57°   Wind: 7mph
Humidity: 84%   Direction: 340°NNW
Pressure: 29.73"   Gusts: NA
Location:  29.5157°N, 98.5226°W
Report Text: KSAT 230551Z 34006KT 10SM SCT100 BKN250 17/14 A2973 RMK AO2 SLP055 60160 T01670139 10228 20156 402500156 55032
Loading
Personal Weather Stations






























Interactive Weather Map New forecast layout! Learn more

10-Day Weather Forecast

Advertisements
Track Severe Weather on mobile